Changchun, China
Current Conditions -  °F | °C
As of 2:00 PM on Wednesday 22 Oct 2014 (Local Time) from ZYCC Reporting Station
Smoke Smoke  
Wind Chill: 50°   Ceiling: Unl
Heat Index: 50°   Visibility: 1.8mi
Dew Point:   Wind: 7mph
Humidity: 13%   Direction: 180°S
Pressure: 30.15"   Gusts: NA
Location:  43.87°N, 125.35°E
Report Text: ZYCC 220600Z 18003MPS 140V220 3000 FU NSC 10/M18 Q1021 NOSIG
Loading
Personal Weather Stations






























Interactive Weather Map
Tropical Storm Tracking
New forecast layout! Learn more

10-Day Weather Forecast

Advertisements
Track Severe Weather on mobile